Time;durP1;ratioP1;P1;durP2;ratioP2;P2;SDS_P1;SDS_P2;PMS_P1;PMS_P2;Temp;Humidity;BMP_temperature;BMP_pressure;BME280_temperature;BME280_humidity;BME280_pressure;Samples;Min_cycle;Max_cycle;Signal;HPM_P1;HPM_P2
2022/09/28 00:00:17;;;;;;;;;;;19.50;70.90;;;;;;4515421;31;20105;-77
2022/09/28 00:02:43;;;;;;;;;;;19.50;71.10;;;;;;4528379;31;20646;-77
2022/09/28 00:05:11;;;;;;;;;;;19.50;70.90;;;;;;4514121;31;20017;-77
2022/09/28 00:07:37;;;;;;;;;;;19.50;70.80;;;;;;4515811;31;20033;-77
2022/09/28 00:10:03;;;;;;;;;;;19.40;70.80;;;;;;4514510;31;20013;-77
2022/09/28 00:12:30;;;;;;;;;;;19.40;70.80;;;;;;4515649;31;20154;-77
2022/09/28 00:14:56;;;;;;;;;;;19.40;70.80;;;;;;4511755;31;20076;-77
2022/09/28 00:17:22;;;;;;;;;;;19.50;70.90;;;;;;4505444;31;20028;-77
2022/09/28 00:19:49;;;;;;;;;;;19.50;70.80;;;;;;4511164;31;20043;-77
2022/09/28 00:22:15;;;;;;;;;;;19.40;70.80;;;;;;4514731;31;20024;-77
2022/09/28 00:24:41;;;;;;;;;;;19.40;70.70;;;;;;4515867;31;20202;-77
2022/09/28 00:27:08;;;;;;;;;;;19.40;70.80;;;;;;4515003;31;20012;-77
2022/09/28 00:29:35;;;;;;;;;;;19.40;70.80;;;;;;4515358;31;20105;-78
2022/09/28 00:32:03;;;;;;;;;;;19.40;70.80;;;;;;4515127;31;20044;-77
2022/09/28 00:34:30;;;;;;;;;;;19.40;70.70;;;;;;4515099;31;20044;-76
2022/09/28 00:36:56;;;;;;;;;;;19.40;70.70;;;;;;4515769;31;20150;-77
2022/09/28 00:39:22;;;;;;;;;;;19.40;70.70;;;;;;4514845;31;20031;-77
2022/09/28 00:41:48;;;;;;;;;;;19.30;70.60;;;;;;4515513;31;20032;-77
2022/09/28 00:44:32;;;;;;;;;;;19.40;70.60;;;;;;4515009;31;20134;-77
2022/09/28 00:47:05;;;;;;;;;;;19.40;70.70;;;;;;4503845;31;20101;-77
2022/09/28 00:49:34;;;;;;;;;;;19.30;70.60;;;;;;4515602;31;20494;-77
2022/09/28 00:52:01;;;;;;;;;;;19.30;70.50;;;;;;4512417;31;20021;-77
2022/09/28 00:54:28;;;;;;;;;;;19.30;70.50;;;;;;4504603;31;20041;-77
2022/09/28 00:56:56;;;;;;;;;;;19.30;70.40;;;;;;4513428;31;20048;-77
2022/09/28 00:59:30;;;;;;;;;;;19.30;70.50;;;;;;4515205;31;20025;-77
2022/09/28 01:01:55;;;;;;;;;;;19.30;70.50;;;;;;4514776;31;20396;-77
2022/09/28 01:04:22;;;;;;;;;;;19.30;70.40;;;;;;4514365;31;20020;-77
2022/09/28 01:06:48;;;;;;;;;;;19.30;71.20;;;;;;4514304;31;20532;-77
2022/09/28 01:09:15;;;;;;;;;;;19.30;70.40;;;;;;4511520;31;20024;-77
2022/09/28 01:11:41;;;;;;;;;;;19.30;70.40;;;;;;4505521;31;20072;-78
2022/09/28 01:14:09;;;;;;;;;;;19.30;70.40;;;;;;4514560;31;20033;-77
2022/09/28 01:16:44;;;;;;;;;;;19.30;70.40;;;;;;4514717;31;20032;-78
2022/09/28 01:19:28;;;;;;;;;;;19.30;70.40;;;;;;4504161;31;20035;-77
2022/09/28 01:22:08;;;;;;;;;;;19.20;70.30;;;;;;4498309;31;20025;-77
2022/09/28 01:24:52;;;;;;;;;;;19.30;70.40;;;;;;4509362;31;20041;-77
2022/09/28 01:27:21;;;;;;;;;;;19.20;70.30;;;;;;4499235;31;20021;-77
2022/09/28 01:29:56;;;;;;;;;;;19.20;71.20;;;;;;4499715;31;20025;-77
2022/09/28 01:32:31;;;;;;;;;;;19.20;70.30;;;;;;4514897;31;20147;-77
2022/09/28 01:34:57;;;;;;;;;;;19.20;70.30;;;;;;4513616;31;20043;-78
2022/09/28 01:37:26;;;;;;;;;;;19.20;70.30;;;;;;4515156;31;20013;-77
2022/09/28 01:39:53;;;;;;;;;;;19.20;70.40;;;;;;4513823;31;20035;-78
2022/09/28 01:42:20;;;;;;;;;;;19.20;70.30;;;;;;4513342;31;20029;-77
2022/09/28 01:44:48;;;;;;;;;;;19.20;70.30;;;;;;4513093;31;20033;-77
2022/09/28 01:47:15;;;;;;;;;;;19.20;70.30;;;;;;4502636;31;20197;-77
2022/09/28 01:49:45;;;;;;;;;;;19.20;70.30;;;;;;4513639;31;20037;-77
2022/09/28 01:52:14;;;;;;;;;;;19.20;70.30;;;;;;4512475;31;20140;-78
2022/09/28 01:54:40;;;;;;;;;;;19.20;70.30;;;;;;4506159;31;20033;-78
2022/09/28 01:57:09;;;;;;;;;;;19.10;70.20;;;;;;4508882;31;20013;-78
2022/09/28 01:59:37;;;;;;;;;;;19.20;70.30;;;;;;4505570;31;20461;-78
2022/09/28 02:02:05;;;;;;;;;;;19.10;70.20;;;;;;4511650;31;20021;-78
2022/09/28 02:04:34;;;;;;;;;;;19.10;70.20;;;;;;4503773;31;20036;-77
2022/09/28 02:07:00;;;;;;;;;;;19.10;70.20;;;;;;4514529;31;20579;-78
2022/09/28 02:09:54;;;;;;;;;;;19.10;70.20;;;;;;4513194;31;20074;-78
2022/09/28 02:12:21;;;;;;;;;;;19.10;70.10;;;;;;4512020;31;20402;-78
2022/09/28 02:14:48;;;;;;;;;;;19.10;70.10;;;;;;4513918;31;20033;-78
2022/09/28 02:17:15;;;;;;;;;;;19.10;70.10;;;;;;4512313;31;20024;-78
2022/09/28 02:19:41;;;;;;;;;;;19.10;70.10;;;;;;4514233;31;20032;-78
2022/09/28 02:22:22;;;;;;;;;;;19.10;70.10;;;;;;4513308;31;20157;-78
2022/09/28 02:25:02;;;;;;;;;;;19.10;70.10;;;;;;4514044;31;20033;-78
2022/09/28 02:27:30;;;;;;;;;;;19.10;70.00;;;;;;4513868;31;20021;-78
2022/09/28 02:29:56;;;;;;;;;;;19.10;70.00;;;;;;4513145;31;20024;-77
2022/09/28 02:32:23;;;;;;;;;;;19.00;70.00;;;;;;4514223;31;20832;-77
2022/09/28 02:34:49;;;;;;;;;;;19.00;69.90;;;;;;4512813;31;20454;-77
2022/09/28 02:37:15;;;;;;;;;;;19.00;69.90;;;;;;4494177;31;20040;-78
2022/09/28 02:39:40;;;;;;;;;;;19.10;69.90;;;;;;4507652;31;20051;-77
2022/09/28 02:42:09;;;;;;;;;;;19.10;70.00;;;;;;4513478;31;20050;-78
2022/09/28 02:44:46;;;;;;;;;;;19.00;69.90;;;;;;4512328;31;20151;-78
2022/09/28 02:47:11;;;;;;;;;;;19.00;69.80;;;;;;4501822;31;20037;-77
2022/09/28 02:49:53;;;;;;;;;;;19.00;69.80;;;;;;4513880;31;20040;-78
2022/09/28 02:52:18;;;;;;;;;;;19.00;69.80;;;;;;4512536;31;20021;-78
2022/09/28 02:55:03;;;;;;;;;;;19.00;69.80;;;;;;4513662;31;20036;-78
2022/09/28 02:57:28;;;;;;;;;;;19.00;69.80;;;;;;4513052;31;20095;-78
2022/09/28 03:00:10;;;;;;;;;;;19.00;69.80;;;;;;4512072;31;20025;-77
2022/09/28 03:02:55;;;;;;;;;;;19.00;69.80;;;;;;4498063;31;20068;-66
2022/09/28 03:05:44;;;;;;;;;;;19.00;69.70;;;;;;4508486;31;20041;-66
2022/09/28 03:08:25;;;;;;;;;;;19.00;69.70;;;;;;4505531;31;20324;-65
2022/09/28 03:10:59;;;;;;;;;;;19.00;69.70;;;;;;4513438;31;20033;-66
2022/09/28 03:13:25;;;;;;;;;;;18.90;69.70;;;;;;4512070;31;20510;-66
2022/09/28 03:15:51;;;;;;;;;;;18.90;69.70;;;;;;4513677;31;20029;-66
2022/09/28 03:18:17;;;;;;;;;;;18.90;69.70;;;;;;4512879;31;20105;-66
2022/09/28 03:20:43;;;;;;;;;;;18.90;69.70;;;;;;4513065;31;20064;-66
2022/09/28 03:23:10;;;;;;;;;;;18.90;69.70;;;;;;4513087;31;20522;-65
2022/09/28 03:25:36;;;;;;;;;;;18.90;69.70;;;;;;4513047;31;20028;-66
2022/09/28 03:28:02;;;;;;;;;;;18.90;69.70;;;;;;4513279;31;20013;-66
2022/09/28 03:30:27;;;;;;;;;;;18.90;69.60;;;;;;4512499;31;20068;-65
2022/09/28 03:32:58;;;;;;;;;;;18.90;70.50;;;;;;4513622;31;20029;-66
2022/09/28 03:35:23;;;;;;;;;;;18.90;69.50;;;;;;4512727;31;20044;-66
2022/09/28 03:37:53;;;;;;;;;;;18.90;69.60;;;;;;4513071;31;20025;-66
2022/09/28 03:40:18;;;;;;;;;;;18.90;69.50;;;;;;4512759;31;20090;-66
2022/09/28 03:42:44;;;;;;;;;;;18.90;69.50;;;;;;4512754;31;20163;-66
2022/09/28 03:45:10;;;;;;;;;;;18.90;69.50;;;;;;4513339;31;20133;-66
2022/09/28 03:47:36;;;;;;;;;;;18.90;69.50;;;;;;4512519;31;20081;-66
2022/09/28 03:50:02;;;;;;;;;;;18.80;69.40;;;;;;4513483;31;20032;-66
2022/09/28 03:52:31;;;;;;;;;;;18.80;69.50;;;;;;4512486;31;20024;-65
2022/09/28 03:54:57;;;;;;;;;;;18.80;69.30;;;;;;4512980;31;20047;-66
2022/09/28 03:57:24;;;;;;;;;;;18.80;69.40;;;;;;4512515;31;20043;-66
2022/09/28 03:59:51;;;;;;;;;;;18.80;69.40;;;;;;4512570;31;20083;-66
2022/09/28 04:02:20;;;;;;;;;;;18.80;69.30;;;;;;4512935;31;20013;-66
2022/09/28 04:04:45;;;;;;;;;;;18.80;69.40;;;;;;4512152;31;20053;-65
2022/09/28 04:07:11;;;;;;;;;;;18.80;69.40;;;;;;4513368;31;20036;-66
2022/09/28 04:09:37;;;;;;;;;;;18.80;69.40;;;;;;4512077;31;20044;-65
2022/09/28 04:12:03;;;;;;;;;;;18.80;70.20;;;;;;4512985;31;20024;-66
2022/09/28 04:14:28;;;;;;;;;;;18.80;69.40;;;;;;4512390;31;20021;-65
2022/09/28 04:16:54;;;;;;;;;;;18.80;69.30;;;;;;4512542;31;20066;-66
2022/09/28 04:19:21;;;;;;;;;;;18.70;69.30;;;;;;4512854;31;20025;-66
2022/09/28 04:21:47;;;;;;;;;;;18.80;69.30;;;;;;4512307;31;20037;-65
2022/09/28 04:24:13;;;;;;;;;;;18.80;69.30;;;;;;4513183;31;20044;-66
2022/09/28 04:26:39;;;;;;;;;;;18.70;69.30;;;;;;4513706;31;20410;-66
2022/09/28 04:29:17;;;;;;;;;;;18.70;69.30;;;;;;4515651;31;20031;-65
2022/09/28 04:31:46;;;;;;;;;;;18.70;69.30;;;;;;4515276;31;20033;-66
2022/09/28 04:34:13;;;;;;;;;;;18.70;69.30;;;;;;4515148;31;20105;-66
2022/09/28 04:36:39;;;;;;;;;;;18.70;69.30;;;;;;4515595;31;20150;-66
2022/09/28 04:39:05;;;;;;;;;;;18.70;69.30;;;;;;4514471;31;20032;-66
2022/09/28 04:41:32;;;;;;;;;;;18.70;69.20;;;;;;4515785;31;20036;-67
2022/09/28 04:43:57;;;;;;;;;;;18.70;69.20;;;;;;4514762;31;20040;-65
2022/09/28 04:46:23;;;;;;;;;;;18.70;69.30;;;;;;4515385;31;20078;-66
2022/09/28 04:48:49;;;;;;;;;;;18.70;69.30;;;;;;4514854;31;20028;-66
2022/09/28 04:51:15;;;;;;;;;;;18.70;69.20;;;;;;4514851;31;20033;-66
2022/09/28 04:53:41;;;;;;;;;;;18.70;69.20;;;;;;4515155;31;20013;-66
2022/09/28 04:56:08;;;;;;;;;;;18.70;69.20;;;;;;4513288;31;20458;-66
2022/09/28 04:58:34;;;;;;;;;;;18.70;69.30;;;;;;4515477;31;20035;-66
2022/09/28 05:01:01;;;;;;;;;;;18.70;69.20;;;;;;4514609;31;20560;-65
2022/09/28 05:03:27;;;;;;;;;;;18.60;69.20;;;;;;4515038;31;20114;-65
2022/09/28 05:05:53;;;;;;;;;;;18.60;69.20;;;;;;4514485;31;20029;-66
2022/09/28 05:08:19;;;;;;;;;;;18.60;69.20;;;;;;4514576;31;20021;-65
2022/09/28 05:10:45;;;;;;;;;;;18.60;69.20;;;;;;4515043;31;20017;-65
2022/09/28 05:13:11;;;;;;;;;;;18.60;69.20;;;;;;4514285;31;20012;-66
2022/09/28 05:15:38;;;;;;;;;;;18.60;69.20;;;;;;4515370;31;20021;-66
2022/09/28 05:18:03;;;;;;;;;;;18.60;69.20;;;;;;4514303;31;20041;-66
2022/09/28 05:20:29;;;;;;;;;;;18.60;70.00;;;;;;4514986;31;20036;-65
2022/09/28 05:22:55;;;;;;;;;;;18.60;69.20;;;;;;4514311;31;20167;-66
2022/09/28 05:25:24;;;;;;;;;;;18.60;69.10;;;;;;4514639;31;20037;-66
2022/09/28 05:27:54;;;;;;;;;;;18.60;69.20;;;;;;4514767;31;20033;-66
2022/09/28 05:30:21;;;;;;;;;;;18.60;69.10;;;;;;4498224;31;20033;-66
2022/09/28 05:32:48;;;;;;;;;;;18.60;69.20;;;;;;4509257;31;20025;-66
2022/09/28 05:35:13;;;;;;;;;;;18.60;69.20;;;;;;4513979;31;20043;-66
2022/09/28 05:37:40;;;;;;;;;;;18.60;69.10;;;;;;4514180;31;20013;-66
2022/09/28 05:40:06;;;;;;;;;;;18.50;69.10;;;;;;4513965;31;20036;-66
2022/09/28 05:42:32;;;;;;;;;;;18.50;69.10;;;;;;4514208;31;20420;-66
2022/09/28 05:44:57;;;;;;;;;;;18.50;69.00;;;;;;4514365;31;20020;-66
2022/09/28 05:47:24;;;;;;;;;;;18.50;69.10;;;;;;4513914;31;20021;-66
2022/09/28 05:49:51;;;;;;;;;;;18.60;69.20;;;;;;4515001;31;20555;-66
2022/09/28 05:52:16;;;;;;;;;;;18.50;69.00;;;;;;4513516;31;20029;-65
2022/09/28 05:54:42;;;;;;;;;;;18.50;69.00;;;;;;4514549;31;20013;-66
2022/09/28 05:57:08;;;;;;;;;;;18.50;69.00;;;;;;4513798;31;20035;-66
2022/09/28 05:59:34;;;;;;;;;;;18.50;69.00;;;;;;4514039;31;20044;-66
2022/09/28 06:02:01;;;;;;;;;;;18.50;69.00;;;;;;4514037;31;20029;-66
2022/09/28 06:04:27;;;;;;;;;;;18.50;69.00;;;;;;4513574;31;20086;-66
2022/09/28 06:06:53;;;;;;;;;;;18.50;69.00;;;;;;4514765;31;20158;-65
2022/09/28 06:09:19;;;;;;;;;;;18.50;69.10;;;;;;4513143;31;20001;-65
2022/09/28 06:11:45;;;;;;;;;;;18.50;69.00;;;;;;4514278;31;20330;-66
2022/09/28 06:14:12;;;;;;;;;;;18.50;69.00;;;;;;4513481;31;20036;-66
2022/09/28 06:16:38;;;;;;;;;;;18.50;68.90;;;;;;4513788;31;20182;-66
2022/09/28 06:19:04;;;;;;;;;;;18.50;69.00;;;;;;4513768;31;20041;-66
2022/09/28 06:21:29;;;;;;;;;;;18.50;68.90;;;;;;4513488;31;20020;-66
2022/09/28 06:23:55;;;;;;;;;;;18.50;69.00;;;;;;4514244;31;20043;-66
2022/09/28 06:26:22;;;;;;;;;;;18.50;67.40;;;;;;4512905;31;20028;-66
2022/09/28 06:28:48;;;;;;;;;;;18.40;66.90;;;;;;4513976;31;20028;-66
2022/09/28 06:31:14;;;;;;;;;;;18.40;67.20;;;;;;4513287;31;20012;-65
2022/09/28 06:33:40;;;;;;;;;;;18.40;67.70;;;;;;4513397;31;20047;-66
2022/09/28 06:36:07;;;;;;;;;;;18.40;68.10;;;;;;4525601;31;20154;-66
2022/09/28 06:38:33;;;;;;;;;;;18.40;68.10;;;;;;4512936;31;20029;-65
2022/09/28 06:40:58;;;;;;;;;;;18.40;68.20;;;;;;4513932;31;20032;-65
2022/09/28 06:43:24;;;;;;;;;;;18.40;68.30;;;;;;4512746;31;20081;-65
2022/09/28 06:45:51;;;;;;;;;;;18.40;68.50;;;;;;4513918;31;20074;-65
2022/09/28 06:48:16;;;;;;;;;;;18.40;68.60;;;;;;4501791;31;20151;-65
2022/09/28 06:50:42;;;;;;;;;;;18.40;68.70;;;;;;4506700;31;20013;-65
2022/09/28 06:53:10;;;;;;;;;;;18.40;68.80;;;;;;4513035;31;20029;-65
2022/09/28 06:55:47;;;;;;;;;;;18.50;68.90;;;;;;4512485;31;20516;-65
2022/09/28 06:58:14;;;;;;;;;;;18.60;68.90;;;;;;4513189;31;20016;-66
2022/09/28 07:00:40;;;;;;;;;;;18.70;68.70;;;;;;4510940;31;20041;-65
2022/09/28 07:03:07;;;;;;;;;;;18.80;68.50;;;;;;4512714;31;20036;-66
2022/09/28 07:05:35;;;;;;;;;;;18.90;68.30;;;;;;4512412;31;20021;-65
2022/09/28 07:08:01;;;;;;;;;;;19.00;68.00;;;;;;4513040;31;20076;-66
2022/09/28 07:10:28;;;;;;;;;;;19.10;67.70;;;;;;4513015;31;20076;-65
2022/09/28 07:12:55;;;;;;;;;;;19.30;67.50;;;;;;4512595;31;20033;-66
2022/09/28 07:15:20;;;;;;;;;;;19.40;67.10;;;;;;4513757;31;20114;-65
2022/09/28 07:17:46;;;;;;;;;;;19.50;66.80;;;;;;4512244;31;20420;-65
2022/09/28 07:20:12;;;;;;;;;;;19.60;66.60;;;;;;4513480;31;20012;-66
2022/09/28 07:22:38;;;;;;;;;;;19.70;66.40;;;;;;4512624;31;20079;-66
2022/09/28 07:25:07;;;;;;;;;;;19.70;66.30;;;;;;4511624;31;20021;-65
2022/09/28 07:27:36;;;;;;;;;;;19.70;66.20;;;;;;4511419;31;20033;-63
2022/09/28 07:30:03;;;;;;;;;;;19.80;66.20;;;;;;4512095;31;20036;-62
2022/09/28 07:32:28;;;;;;;;;;;19.80;66.10;;;;;;4512118;31;20072;-65
2022/09/28 07:34:55;;;;;;;;;;;19.90;66.20;;;;;;4512190;31;20393;-62
2022/09/28 07:37:23;;;;;;;;;;;19.90;66.10;;;;;;4511636;31;20036;-62
2022/09/28 07:42:33;;;;;;;;;;;20.10;65.90;;;;;;4510538;31;20082;-62
2022/09/28 07:44:58;;;;;;;;;;;20.10;65.70;;;;;;4511886;31;20029;-63
2022/09/28 07:47:28;;;;;;;;;;;20.20;65.70;;;;;;4511017;31;20071;-63
2022/09/28 07:49:55;;;;;;;;;;;20.30;65.60;;;;;;4512543;31;20061;-63
2022/09/28 07:52:25;;;;;;;;;;;20.30;65.50;;;;;;4510151;31;20047;-62
2022/09/28 07:54:52;;;;;;;;;;;20.40;65.90;;;;;;4512487;31;20029;-63
2022/09/28 07:57:18;;;;;;;;;;;20.40;65.30;;;;;;4510516;31;20057;-62
2022/09/28 07:59:44;;;;;;;;;;;20.50;65.30;;;;;;4512701;31;20048;-63
2022/09/28 08:02:10;;;;;;;;;;;20.60;65.20;;;;;;4515513;31;20032;-63
2022/09/28 08:04:35;;;;;;;;;;;20.60;65.20;;;;;;4514909;31;20025;-63
2022/09/28 08:07:01;;;;;;;;;;;20.70;65.10;;;;;;4515410;31;20048;-63
2022/09/28 08:09:27;;;;;;;;;;;20.70;65.10;;;;;;4514665;31;20563;-64
2022/09/28 08:11:54;;;;;;;;;;;20.70;65.00;;;;;;4515380;31;20216;-62
2022/09/28 08:14:19;;;;;;;;;;;20.80;65.10;;;;;;4514349;31;20082;-63
2022/09/28 08:16:45;;;;;;;;;;;20.80;65.00;;;;;;4514686;31;20559;-63
2022/09/28 08:19:11;;;;;;;;;;;20.80;65.00;;;;;;4515250;31;20121;-63
2022/09/28 08:21:46;;;;;;;;;;;20.90;65.00;;;;;;4513058;31;20190;-63
2022/09/28 08:24:12;;;;;;;;;;;20.90;64.90;;;;;;4515116;31;20166;-63
2022/09/28 08:26:39;;;;;;;;;;;21.00;64.90;;;;;;4513883;31;20044;-63
2022/09/28 08:29:05;;;;;;;;;;;21.00;64.80;;;;;;4514398;31;20032;-64
2022/09/28 08:31:31;;;;;;;;;;;21.00;64.80;;;;;;4514306;31;20039;-63
2022/09/28 08:33:56;;;;;;;;;;;21.00;64.70;;;;;;4510546;31;20083;-63
2022/09/28 08:36:23;;;;;;;;;;;21.10;64.80;;;;;;4509467;31;20017;-63
2022/09/28 08:38:49;;;;;;;;;;;21.10;64.80;;;;;;4513159;31;20542;-63
2022/09/28 08:41:22;;;;;;;;;;;21.20;64.80;;;;;;4486047;31;20032;-63
2022/09/28 08:44:00;;;;;;;;;;;21.20;64.80;;;;;;4512910;31;20036;-63
2022/09/28 08:46:32;;;;;;;;;;;21.20;64.70;;;;;;4513519;31;20470;-64
2022/09/28 08:49:02;;;;;;;;;;;21.20;64.60;;;;;;4514193;31;20032;-63
2022/09/28 08:51:28;;;;;;;;;;;21.20;64.60;;;;;;4513988;31;20020;-62
2022/09/28 08:53:54;;;;;;;;;;;21.10;64.70;;;;;;4514062;31;20032;-62
2022/09/28 08:56:25;;;;;;;;;;;21.10;64.80;;;;;;4512530;31;20047;-62
2022/09/28 08:58:53;;;;;;;;;;;21.00;64.90;;;;;;4513580;31;20093;-62
2022/09/28 09:01:20;;;;;;;;;;;21.00;65.10;;;;;;4512245;31;20391;-61
2022/09/28 09:03:47;;;;;;;;;;;20.90;65.00;;;;;;4513399;31;20068;-62
2022/09/28 09:06:25;;;;;;;;;;;20.90;65.40;;;;;;4513495;31;20038;-62
2022/09/28 09:08:51;;;;;;;;;;;20.80;65.60;;;;;;4510900;31;20043;-62
2022/09/28 09:11:19;;;;;;;;;;;20.80;65.70;;;;;;4513834;31;20029;-63
2022/09/28 09:13:45;;;;;;;;;;;20.70;65.80;;;;;;4511611;31;20546;-63
2022/09/28 09:16:14;;;;;;;;;;;20.70;66.00;;;;;;4513569;31;20350;-63
2022/09/28 09:18:46;;;;;;;;;;;20.60;66.00;;;;;;4513526;31;20035;-63
2022/09/28 09:21:35;;;;;;;;;;;20.60;66.30;;;;;;4513500;31;20036;-62
2022/09/28 09:24:20;;;;;;;;;;;20.50;66.40;;;;;;4514278;31;20040;-63
2022/09/28 09:26:47;;;;;;;;;;;20.50;66.30;;;;;;4510916;31;20054;-63
2022/09/28 09:29:16;;;;;;;;;;;20.40;66.40;;;;;;4511746;31;20549;-63
2022/09/28 09:31:48;;;;;;;;;;;20.40;66.30;;;;;;4511367;31;20044;-63
2022/09/28 09:34:20;;;;;;;;;;;20.40;65.90;;;;;;4512526;31;20512;-65
2022/09/28 09:37:01;;;;;;;;;;;20.40;65.90;;;;;;4513738;31;20056;-62
2022/09/28 09:40:02;;;;;;;;;;;20.40;66.20;;;;;;4512930;31;20039;-62
2022/09/28 09:42:46;;;;;;;;;;;20.40;66.40;;;;;;4463355;32;20072;-62
2022/09/28 09:45:23;;;;;;;;;;;20.30;65.80;;;;;;4509790;31;20029;-63
2022/09/28 09:47:55;;;;;;;;;;;20.30;66.00;;;;;;4512612;31;20166;-62
2022/09/28 09:50:24;;;;;;;;;;;20.30;66.10;;;;;;4512993;31;20036;-62
2022/09/28 09:52:56;;;;;;;;;;;20.30;66.10;;;;;;4512685;31;20032;-61
2022/09/28 09:55:23;;;;;;;;;;;20.30;66.10;;;;;;4512659;31;20133;-62
2022/09/28 09:57:53;;;;;;;;;;;20.20;66.00;;;;;;4512647;31;20113;-61
2022/09/28 10:00:19;;;;;;;;;;;20.20;65.90;;;;;;4512029;31;20065;-62
2022/09/28 10:02:46;;;;;;;;;;;20.20;66.00;;;;;;4510885;31;20009;-61
2022/09/28 10:05:11;;;;;;;;;;;20.20;66.00;;;;;;4512292;31;20024;-61
2022/09/28 10:07:40;;;;;;;;;;;20.10;65.90;;;;;;4512379;31;20037;-61
2022/09/28 10:10:20;;;;;;;;;;;20.10;66.00;;;;;;4512316;31;20078;-61
2022/09/28 10:12:48;;;;;;;;;;;20.10;66.00;;;;;;4510833;31;20524;-61
2022/09/28 10:15:14;;;;;;;;;;;20.10;65.90;;;;;;4513229;31;20029;-61
2022/09/28 10:17:40;;;;;;;;;;;20.00;65.80;;;;;;4511509;31;20151;-61
2022/09/28 10:20:11;;;;;;;;;;;20.00;65.70;;;;;;4513000;31;20027;-62
2022/09/28 10:22:37;;;;;;;;;;;20.00;65.70;;;;;;4512822;31;20043;-61
2022/09/28 10:25:04;;;;;;;;;;;20.00;65.70;;;;;;4513316;31;20020;-61
2022/09/28 10:27:32;;;;;;;;;;;20.00;65.70;;;;;;4508577;31;20076;-62
2022/09/28 10:30:08;;;;;;;;;;;20.00;65.70;;;;;;4512858;31;20036;-62
2022/09/28 10:32:36;;;;;;;;;;;20.00;65.40;;;;;;4513973;31;20154;-62
2022/09/28 10:35:11;;;;;;;;;;;20.00;65.50;;;;;;4512736;31;20454;-62
2022/09/28 10:37:51;;;;;;;;;;;20.00;65.20;;;;;;4513059;31;20110;-63
2022/09/28 10:40:29;;;;;;;;;;;20.00;65.10;;;;;;4512778;31;20086;-63
2022/09/28 10:43:01;;;;;;;;;;;20.00;64.50;;;;;;4511367;31;20028;-64
2022/09/28 10:45:31;;;;;;;;;;;20.00;64.20;;;;;;4513589;31;20066;-64
2022/09/28 10:47:59;;;;;;;;;;;20.00;64.60;;;;;;4512440;31;20044;-63
2022/09/28 10:50:26;;;;;;;;;;;20.00;64.60;;;;;;4512169;31;20024;-63
2022/09/28 10:52:52;;;;;;;;;;;20.00;64.80;;;;;;4510549;31;20037;-64
2022/09/28 10:55:25;;;;;;;;;;;19.90;64.90;;;;;;4512417;31;20020;-64
2022/09/28 10:57:51;;;;;;;;;;;19.90;65.00;;;;;;4512123;31;20082;-64
2022/09/28 11:00:36;;;;;;;;;;;19.90;65.10;;;;;;4512048;31;20028;-63
2022/09/28 11:03:02;;;;;;;;;;;19.90;65.30;;;;;;4513076;31;20042;-64
2022/09/28 11:05:28;;;;;;;;;;;19.80;65.30;;;;;;4512732;31;20041;-62
2022/09/28 11:07:55;;;;;;;;;;;19.80;65.30;;;;;;4512446;31;20013;-64
2022/09/28 11:10:23;;;;;;;;;;;19.80;65.50;;;;;;4512730;31;20044;-63
2022/09/28 11:12:50;;;;;;;;;;;19.80;65.50;;;;;;4512269;31;20083;-63
2022/09/28 11:15:17;;;;;;;;;;;19.70;65.50;;;;;;4513580;31;20043;-64
2022/09/28 11:17:43;;;;;;;;;;;19.70;65.50;;;;;;4511784;31;20102;-63
2022/09/28 11:20:24;;;;;;;;;;;19.70;65.50;;;;;;4510141;31;20044;-64
2022/09/28 11:23:10;;;;;;;;;;;19.70;65.40;;;;;;4510858;31;20141;-63
2022/09/28 11:25:35;;;;;;;;;;;19.70;65.50;;;;;;4502048;31;20024;-64
2022/09/28 11:28:03;;;;;;;;;;;19.60;65.40;;;;;;4512650;31;20008;-64
2022/09/28 11:30:33;;;;;;;;;;;19.60;65.50;;;;;;4483191;31;29078;-63
2022/09/28 11:33:03;;;;;;;;;;;19.60;65.30;;;;;;4512855;31;20040;-64
2022/09/28 11:35:30;;;;;;;;;;;19.60;65.30;;;;;;4513814;31;20162;-63
2022/09/28 11:38:11;;;;;;;;;;;19.60;65.40;;;;;;4515293;31;20029;-64
2022/09/28 11:41:03;;;;;;;;;;;19.60;65.40;;;;;;4509045;31;20033;-64
2022/09/28 11:43:35;;;;;;;;;;;19.60;65.30;;;;;;4511338;31;20101;-63
2022/09/28 11:46:07;;;;;;;;;;;19.60;65.20;;;;;;4515315;31;20035;-64
2022/09/28 11:48:39;;;;;;;;;;;19.60;65.20;;;;;;4515408;31;20138;-64
2022/09/28 11:51:08;;;;;;;;;;;19.60;65.20;;;;;;4527319;31;20043;-64
2022/09/28 11:53:35;;;;;;;;;;;19.60;65.30;;;;;;4516046;31;20155;-64
2022/09/28 11:56:07;;;;;;;;;;;19.60;65.40;;;;;;4515033;31;20028;-62
2022/09/28 11:58:42;;;;;;;;;;;19.60;65.40;;;;;;4512285;31;20356;-64
2022/09/28 12:01:34;;;;;;;;;;;19.60;65.40;;;;;;4507848;31;20099;-64
2022/09/28 12:04:10;;;;;;;;;;;19.60;65.50;;;;;;4522734;31;20032;-64
2022/09/28 12:06:48;;;;;;;;;;;19.60;65.60;;;;;;4524953;31;20028;-64
2022/09/28 12:09:21;;;;;;;;;;;19.50;65.60;;;;;;4514954;31;20040;-64
2022/09/28 12:11:49;;;;;;;;;;;19.50;65.70;;;;;;4516005;31;20032;-64
2022/09/28 12:14:21;;;;;;;;;;;19.50;65.70;;;;;;4515203;31;20155;-64
2022/09/28 12:16:53;;;;;;;;;;;19.50;65.80;;;;;;4515255;31;20036;-64
2022/09/28 12:19:39;;;;;;;;;;;19.50;66.00;;;;;;4515875;31;20142;-65
2022/09/28 12:22:16;;;;;;;;;;;19.50;66.00;;;;;;4514887;31;20032;-63
2022/09/28 12:24:46;;;;;;;;;;;19.50;66.00;;;;;;4514130;31;20044;-64
2022/09/28 12:27:27;;;;;;;;;;;19.50;66.00;;;;;;4515242;31;20457;-64
2022/09/28 12:30:01;;;;;;;;;;;19.50;66.00;;;;;;4515075;31;20060;-64
2022/09/28 12:32:34;;;;;;;;;;;19.50;66.00;;;;;;4515739;31;20025;-64
2022/09/28 12:35:00;;;;;;;;;;;19.50;66.10;;;;;;4492196;31;30258;-63
2022/09/28 12:37:33;;;;;;;;;;;19.50;66.00;;;;;;4514689;31;20145;-63
2022/09/28 12:40:06;;;;;;;;;;;19.50;66.00;;;;;;4514318;31;20036;-62
2022/09/28 12:42:41;;;;;;;;;;;19.50;66.20;;;;;;4514721;31;20470;-63
2022/09/28 12:45:09;;;;;;;;;;;19.50;66.20;;;;;;4514522;31;20024;-64
2022/09/28 12:47:50;;;;;;;;;;;19.50;66.00;;;;;;4512736;31;20608;-62
2022/09/28 12:50:22;;;;;;;;;;;19.50;66.20;;;;;;4514757;31;20024;-61
2022/09/28 12:52:54;;;;;;;;;;;19.50;66.10;;;;;;4514515;31;20166;-61
2022/09/28 12:55:28;;;;;;;;;;;19.60;66.10;;;;;;4514094;31;20041;-62
2022/09/28 12:58:14;;;;;;;;;;;19.60;66.10;;;;;;4513590;31;20043;-62
2022/09/28 13:00:48;;;;;;;;;;;19.60;66.10;;;;;;4513840;31;20036;-61
2022/09/28 13:03:30;;;;;;;;;;;19.60;66.00;;;;;;4514369;31;20103;-62
2022/09/28 13:06:08;;;;;;;;;;;19.60;66.00;;;;;;4514024;31;20040;-61
2022/09/28 13:08:49;;;;;;;;;;;19.60;65.90;;;;;;4508446;31;20032;-62
2022/09/28 13:11:35;;;;;;;;;;;19.60;65.80;;;;;;4514655;31;20059;-61
2022/09/28 13:14:10;;;;;;;;;;;19.60;65.80;;;;;;4486691;31;20040;-62
2022/09/28 13:16:43;;;;;;;;;;;19.70;65.70;;;;;;4513603;31;20426;-64
2022/09/28 13:19:14;;;;;;;;;;;19.70;65.70;;;;;;4514314;31;20032;-63
2022/09/28 13:21:48;;;;;;;;;;;19.70;65.80;;;;;;4513772;31;20040;-63
2022/09/28 13:24:18;;;;;;;;;;;19.70;65.70;;;;;;4514288;31;20553;-63
2022/09/28 13:26:45;;;;;;;;;;;19.70;65.50;;;;;;4511176;31;20029;-63
2022/09/28 13:29:16;;;;;;;;;;;19.70;65.60;;;;;;4512294;31;20044;-63
2022/09/28 13:31:46;;;;;;;;;;;19.70;65.50;;;;;;4513227;31;20032;-63
2022/09/28 13:34:19;;;;;;;;;;;19.70;65.40;;;;;;4496098;31;27631;-64
2022/09/28 13:36:45;;;;;;;;;;;19.70;65.30;;;;;;4513814;31;20046;-63
2022/09/28 13:39:30;;;;;;;;;;;19.70;65.20;;;;;;4513349;31;20379;-63
2022/09/28 13:41:55;;;;;;;;;;;19.70;65.00;;;;;;4512381;31;20087;-63
2022/09/28 13:44:30;;;;;;;;;;;19.70;65.10;;;;;;4513835;31;20179;-63
2022/09/28 13:47:05;;;;;;;;;;;19.70;65.10;;;;;;4513151;31;20037;-63
2022/09/28 13:49:50;;;;;;;;;;;19.60;65.10;;;;;;4506876;31;20051;-63
2022/09/28 13:52:27;;;;;;;;;;;19.60;65.00;;;;;;4512498;31;20099;-63
2022/09/28 13:54:58;;;;;;;;;;;19.60;65.00;;;;;;4513317;31;20032;-64
2022/09/28 13:57:27;;;;;;;;;;;19.60;64.80;;;;;;4512912;31;20025;-64
2022/09/28 13:59:56;;;;;;;;;;;19.60;64.80;;;;;;4513384;31;20036;-64
2022/09/28 14:02:22;;;;;;;;;;;19.60;64.80;;;;;;4513918;31;20036;-64
2022/09/28 14:04:56;;;;;;;;;;;19.60;64.60;;;;;;4512674;31;20035;-63
2022/09/28 14:07:45;;;;;;;;;;;19.60;64.70;;;;;;4508675;31;20021;-64
2022/09/28 14:10:16;;;;;;;;;;;19.60;64.70;;;;;;4506179;31;20024;-63
2022/09/28 14:12:50;;;;;;;;;;;19.60;64.60;;;;;;4512810;31;20052;-64
2022/09/28 14:15:28;;;;;;;;;;;19.60;64.80;;;;;;4513295;31;20032;-65
2022/09/28 14:18:00;;;;;;;;;;;19.60;64.90;;;;;;4512229;31;20043;-64
2022/09/28 14:20:27;;;;;;;;;;;19.60;65.10;;;;;;4513154;31;20048;-64
2022/09/28 14:22:54;;;;;;;;;;;19.60;65.40;;;;;;4512678;31;20041;-64
2022/09/28 14:25:24;;;;;;;;;;;19.60;65.40;;;;;;4512472;31;20058;-64
2022/09/28 14:28:09;;;;;;;;;;;19.60;65.50;;;;;;4510962;31;20032;-63
2022/09/28 14:30:41;;;;;;;;;;;19.70;65.80;;;;;;4512295;31;20029;-63
2022/09/28 14:33:25;;;;;;;;;;;19.80;65.60;;;;;;4511191;31;20028;-64